createdAt,value
2022-08-31T00:00:36.302Z,2.08
2022-08-31T00:03:22.831Z,2.53
2022-08-31T00:05:49.926Z,2.15
2022-08-31T00:08:17.315Z,3.40
2022-08-31T00:10:48.533Z,6.65
2022-08-31T00:13:19.337Z,4.03
2022-08-31T00:15:46.655Z,2.05
2022-08-31T00:18:14.486Z,5.13
2022-08-31T00:20:42.397Z,5.03
2022-08-31T00:23:11.967Z,2.67
2022-08-31T00:25:43.478Z,3.03
2022-08-31T00:28:12.143Z,3.88
2022-08-31T00:30:42.277Z,2.95
2022-08-31T00:33:12.315Z,2.17
2022-08-31T00:35:44.260Z,3.08
2022-08-31T00:38:16.192Z,3.85
2022-08-31T00:40:47.807Z,3.33
2022-08-31T00:43:36.623Z,2.60
2022-08-31T00:46:04.116Z,4.28
2022-08-31T00:48:33.527Z,5.10
2022-08-31T00:51:03.058Z,4.63
2022-08-31T00:53:32.294Z,2.78
2022-08-31T00:55:59.437Z,3.88
2022-08-31T00:58:28.034Z,2.37
2022-08-31T01:00:55.152Z,2.17
2022-08-31T01:03:23.077Z,2.43
2022-08-31T01:05:51.065Z,4.03
2022-08-31T01:10:51.519Z,2.53
2022-08-31T01:13:20.610Z,2.60
2022-08-31T01:15:57.187Z,2.42
2022-08-31T01:18:25.068Z,2.50
2022-08-31T01:20:57.717Z,4.18
2022-08-31T01:23:29.866Z,2.53
2022-08-31T01:26:00.954Z,3.00
2022-08-31T01:28:29.383Z,3.25
2022-08-31T01:31:14.450Z,3.50
2022-08-31T01:33:43.631Z,3.58
2022-08-31T01:36:16.089Z,2.00
2022-08-31T01:38:46.388Z,6.72
2022-08-31T01:41:17.953Z,3.20
2022-08-31T01:43:45.963Z,3.40
2022-08-31T01:48:43.184Z,2.95
2022-08-31T01:51:15.378Z,3.97
2022-08-31T01:53:45.467Z,3.22
2022-08-31T01:56:22.676Z,4.60
2022-08-31T01:58:50.221Z,4.28
2022-08-31T02:01:31.197Z,7.95
2022-08-31T02:04:06.202Z,2.92
2022-08-31T02:06:33.631Z,2.33
2022-08-31T02:09:07.087Z,1.70
2022-08-31T02:11:34.982Z,2.13
2022-08-31T02:14:06.246Z,3.08
2022-08-31T02:16:33.754Z,2.72
2022-08-31T02:19:01.313Z,3.67
2022-08-31T02:21:28.455Z,2.88
2022-08-31T02:23:56.362Z,3.87
2022-08-31T02:26:26.215Z,2.25
2022-08-31T02:28:53.839Z,3.45
2022-08-31T02:31:26.385Z,3.22
2022-08-31T02:33:56.207Z,2.40
2022-08-31T02:36:23.834Z,3.05
2022-08-31T02:38:51.890Z,3.00
2022-08-31T02:41:22.076Z,3.65
2022-08-31T02:43:51.497Z,3.63
2022-08-31T02:46:20.058Z,2.45
2022-08-31T02:48:47.072Z,2.50
2022-08-31T02:51:13.959Z,3.90
2022-08-31T02:53:40.862Z,3.38
2022-08-31T02:56:15.423Z,3.65
2022-08-31T02:58:44.529Z,2.05
2022-08-31T03:01:15.205Z,3.63
2022-08-31T03:03:46.294Z,3.65
2022-08-31T03:06:17.304Z,2.17
2022-08-31T03:08:44.698Z,4.60
2022-08-31T03:11:12.991Z,3.20
2022-08-31T03:13:40.934Z,4.47
2022-08-31T03:18:38.641Z,2.83
2022-08-31T03:21:08.340Z,2.60
2022-08-31T03:23:36.821Z,5.05
2022-08-31T03:26:08.752Z,1.65
2022-08-31T03:28:40.854Z,2.95
2022-08-31T03:31:10.200Z,4.45
2022-08-31T03:33:39.762Z,3.72
2022-08-31T03:36:07.288Z,3.58
2022-08-31T03:38:36.391Z,3.55
2022-08-31T03:41:07.123Z,5.35
2022-08-31T03:43:34.385Z,2.75
2022-08-31T03:46:04.638Z,6.15
2022-08-31T03:48:42.316Z,3.75
2022-08-31T03:51:09.961Z,2.80
2022-08-31T03:53:42.420Z,4.05
2022-08-31T03:56:12.365Z,2.70
2022-08-31T03:58:41.906Z,5.35
2022-08-31T04:01:13.499Z,5.30
2022-08-31T04:03:42.643Z,1.98
2022-08-31T04:06:13.776Z,3.17
2022-08-31T04:08:43.633Z,3.75
2022-08-31T04:11:16.744Z,6.15
2022-08-31T04:13:46.966Z,3.20
2022-08-31T04:16:17.799Z,2.15
2022-08-31T04:21:33.116Z,3.53
2022-08-31T04:24:03.517Z,2.80
2022-08-31T04:26:34.966Z,3.00
2022-08-31T04:29:08.620Z,3.40
2022-08-31T04:31:38.499Z,4.63
2022-08-31T04:34:10.138Z,3.17
2022-08-31T04:36:37.691Z,2.33
2022-08-31T04:39:08.040Z,4.05
2022-08-31T04:41:37.739Z,3.38
2022-08-31T04:44:07.458Z,3.28
2022-08-31T04:46:36.901Z,2.28
2022-08-31T04:49:04.551Z,4.85
2022-08-31T04:51:36.896Z,3.15
2022-08-31T04:54:06.382Z,3.42
2022-08-31T04:56:49.389Z,3.00
2022-08-31T04:59:18.854Z,2.10
2022-08-31T05:01:48.608Z,5.55
2022-08-31T05:17:17.153Z,2.28
2022-08-31T05:19:47.349Z,4.18
2022-08-31T05:22:17.718Z,7.45
2022-08-31T05:24:44.682Z,2.85
2022-08-31T05:27:13.389Z,3.53
2022-08-31T05:29:43.458Z,6.28
2022-08-31T05:32:10.672Z,5.00
2022-08-31T05:34:40.775Z,4.28
2022-08-31T05:37:09.968Z,4.80
2022-08-31T05:39:40.113Z,3.53
2022-08-31T05:42:09.935Z,4.28
2022-08-31T05:44:37.698Z,5.95
2022-08-31T05:47:07.422Z,6.28
2022-08-31T05:49:35.088Z,4.75
2022-08-31T05:52:05.377Z,7.80
2022-08-31T05:54:36.147Z,7.85
2022-08-31T05:57:04.142Z,5.90
2022-08-31T06:02:01.875Z,6.13
2022-08-31T06:04:29.256Z,8.23
2022-08-31T06:19:17.086Z,6.75
2022-08-31T06:21:50.471Z,4.78
2022-08-31T06:24:20.293Z,8.57
2022-08-31T06:26:58.497Z,4.68
2022-08-31T06:29:30.199Z,5.20
2022-08-31T06:31:57.607Z,5.20
2022-08-31T06:34:30.100Z,5.82
2022-08-31T06:36:57.106Z,4.20
2022-08-31T06:39:24.095Z,3.35
2022-08-31T06:41:55.947Z,8.55
2022-08-31T06:44:24.143Z,5.20
2022-08-31T06:46:53.549Z,7.10
2022-08-31T06:49:22.923Z,6.18
2022-08-31T06:51:56.015Z,9.32
2022-08-31T06:54:30.760Z,10.25
2022-08-31T06:57:02.904Z,5.82
2022-08-31T06:59:34.094Z,13.75
2022-08-31T07:02:02.012Z,8.20
2022-08-31T07:06:59.240Z,31.90
2022-08-31T07:09:27.539Z,23.90
2022-08-31T07:11:58.527Z,17.92
2022-08-31T07:14:31.226Z,7.25
2022-08-31T07:17:03.078Z,5.00
2022-08-31T07:19:34.687Z,7.72
2022-08-31T07:22:05.777Z,5.18
2022-08-31T07:24:42.905Z,6.30
2022-08-31T07:27:16.344Z,7.57
2022-08-31T07:29:43.391Z,3.30
2022-08-31T07:32:16.665Z,5.80
2022-08-31T07:34:46.066Z,6.18
2022-08-31T07:37:36.494Z,4.47
2022-08-31T07:52:03.563Z,5.05
2022-08-31T07:54:31.691Z,14.77
2022-08-31T07:57:03.864Z,5.90
2022-08-31T07:59:33.284Z,5.93
2022-08-31T08:02:02.918Z,6.50
2022-08-31T08:04:30.975Z,6.13
2022-08-31T08:09:30.005Z,5.43
2022-08-31T08:12:06.388Z,5.95
2022-08-31T08:14:39.866Z,5.75
2022-08-31T08:17:07.913Z,6.43
2022-08-31T08:22:05.420Z,6.18
2022-08-31T08:24:32.607Z,6.10
2022-08-31T08:27:02.501Z,6.37
2022-08-31T08:29:32.509Z,9.02
2022-08-31T08:32:00.680Z,5.45
2022-08-31T08:34:31.629Z,6.75
2022-08-31T08:37:04.359Z,5.32
2022-08-31T08:39:31.197Z,5.75
2022-08-31T08:41:58.120Z,5.60
2022-08-31T08:44:28.593Z,6.63
2022-08-31T08:46:58.844Z,4.25
2022-08-31T08:49:29.114Z,5.90
2022-08-31T08:52:03.753Z,10.68
2022-08-31T08:54:34.683Z,4.75
2022-08-31T08:57:15.172Z,4.40
2022-08-31T08:59:47.117Z,11.40
2022-08-31T09:02:52.962Z,4.55
2022-08-31T09:05:35.065Z,9.85
2022-08-31T09:08:16.223Z,6.20
2022-08-31T09:10:55.713Z,9.15
2022-08-31T09:13:53.051Z,9.32
2022-08-31T09:16:20.701Z,10.10
2022-08-31T09:18:54.987Z,5.68
2022-08-31T09:21:29.514Z,6.72
2022-08-31T09:24:03.768Z,6.68
2022-08-31T09:26:35.556Z,5.55
2022-08-31T09:29:04.013Z,6.78
2022-08-31T09:31:41.289Z,8.32
2022-08-31T09:34:32.584Z,5.93
2022-08-31T09:37:26.003Z,10.15
2022-08-31T09:39:54.632Z,7.07
2022-08-31T09:42:31.121Z,4.28
2022-08-31T09:45:06.160Z,3.70
2022-08-31T09:47:51.339Z,10.25
2022-08-31T09:50:47.815Z,4.85
2022-08-31T09:53:46.417Z,5.05
2022-08-31T09:56:20.120Z,8.88
2022-08-31T09:58:48.649Z,5.43
2022-08-31T10:01:19.074Z,5.10
2022-08-31T10:03:47.816Z,6.05
2022-08-31T10:06:37.777Z,6.68
2022-08-31T10:09:18.038Z,5.13
2022-08-31T10:11:47.768Z,7.07
2022-08-31T10:14:42.030Z,6.53
2022-08-31T10:17:17.170Z,4.03
2022-08-31T10:20:06.073Z,7.10
2022-08-31T10:22:41.880Z,6.43
2022-08-31T10:25:31.259Z,7.40
2022-08-31T10:28:07.734Z,6.90
2022-08-31T10:30:38.626Z,4.93
2022-08-31T10:33:14.762Z,5.63
2022-08-31T10:36:08.114Z,4.97
2022-08-31T10:38:43.018Z,8.23
2022-08-31T10:41:17.318Z,5.47
2022-08-31T10:44:08.241Z,8.13
2022-08-31T10:46:37.566Z,9.43
2022-08-31T10:49:06.339Z,7.03
2022-08-31T10:51:35.985Z,6.47
2022-08-31T10:54:45.667Z,7.18
2022-08-31T10:57:31.498Z,12.40
2022-08-31T11:00:39.872Z,12.73
2022-08-31T11:03:30.114Z,10.30
2022-08-31T11:06:00.533Z,10.23
2022-08-31T11:08:37.237Z,10.00
2022-08-31T11:11:11.164Z,12.57
2022-08-31T11:13:57.252Z,9.68
2022-08-31T11:16:42.487Z,10.02
2022-08-31T11:19:38.649Z,8.77
2022-08-31T11:22:45.133Z,9.88
2022-08-31T11:25:48.145Z,9.67
2022-08-31T11:28:46.087Z,6.63
2022-08-31T11:31:23.583Z,9.02
2022-08-31T11:34:15.624Z,9.68
2022-08-31T11:37:01.012Z,9.80
2022-08-31T11:39:36.204Z,8.50
2022-08-31T11:42:33.234Z,8.77
2022-08-31T11:45:27.066Z,8.90
2022-08-31T11:47:55.064Z,12.48
2022-08-31T11:52:53.626Z,14.00
2022-08-31T11:55:22.543Z,14.13
2022-08-31T11:58:07.605Z,16.58
2022-08-31T12:00:58.605Z,11.93
2022-08-31T12:03:40.117Z,21.30
2022-08-31T12:06:37.257Z,10.38
2022-08-31T12:09:10.027Z,13.15
2022-08-31T12:11:59.384Z,14.15
2022-08-31T12:14:42.741Z,16.58
2022-08-31T12:17:22.862Z,15.63
2022-08-31T12:20:20.304Z,15.30
2022-08-31T12:23:31.052Z,17.80
2022-08-31T12:26:40.694Z,16.63
2022-08-31T12:29:42.842Z,14.07
2022-08-31T12:32:37.554Z,16.65
2022-08-31T12:35:09.857Z,14.98
2022-08-31T12:37:40.256Z,14.52
2022-08-31T12:40:10.620Z,14.75
2022-08-31T12:42:55.970Z,16.60
2022-08-31T12:45:41.332Z,19.08
2022-08-31T12:48:30.400Z,14.02
2022-08-31T12:51:31.547Z,16.77
2022-08-31T12:54:13.622Z,17.20
2022-08-31T12:56:58.524Z,17.23
2022-08-31T13:00:00.611Z,16.33
2022-08-31T13:02:32.849Z,15.18
2022-08-31T13:05:00.359Z,17.15
2022-08-31T13:07:36.482Z,12.13
2022-08-31T13:10:08.024Z,13.02
2022-08-31T13:12:35.745Z,13.07
2022-08-31T13:15:02.687Z,15.75
2022-08-31T13:17:36.410Z,13.30
2022-08-31T13:20:03.672Z,14.57
2022-08-31T13:22:42.713Z,25.17
2022-08-31T13:25:41.607Z,12.80
2022-08-31T13:28:11.876Z,15.80
2022-08-31T13:30:41.515Z,16.45
2022-08-31T13:33:31.222Z,12.63
2022-08-31T13:36:04.365Z,13.68
2022-08-31T13:38:42.556Z,19.58
2022-08-31T13:41:38.048Z,38.08
2022-08-31T13:44:11.902Z,12.35
2022-08-31T13:46:50.543Z,28.58
2022-08-31T13:49:35.577Z,8.65
2022-08-31T13:52:17.637Z,9.38
2022-08-31T13:54:44.605Z,9.63
2022-08-31T13:57:22.773Z,7.60
2022-08-31T13:59:49.744Z,6.57
2022-08-31T14:02:18.563Z,65.63
2022-08-31T14:04:48.352Z,34.72
2022-08-31T14:07:22.134Z,18.55
2022-08-31T14:10:09.567Z,15.20
2022-08-31T14:15:17.552Z,6.38
2022-08-31T14:21:22.776Z,5.68
2022-08-31T14:24:04.649Z,6.40
2022-08-31T14:26:41.780Z,5.03
2022-08-31T14:29:14.708Z,3.47
2022-08-31T14:31:49.369Z,6.70
2022-08-31T14:34:22.325Z,10.18
2022-08-31T14:36:53.872Z,7.53
